Time;durP1;ratioP1;P1;durP2;ratioP2;P2;SDS_P1;SDS_P2;PMS_P1;PMS_P2;Temp;Humidity;BMP_temperature;BMP_pressure;BME280_temperature;BME280_humidity;BME280_pressure;Samples;Min_cycle;Max_cycle;Signal;HPM_P1;HPM_P2
2022/07/18 00:01:28;;;;;;;3.78;1.42;;;16.30;99.90;;;;;;5073882;28;20032;-76
2022/07/18 00:03:53;;;;;;;3.83;1.33;;;16.40;99.90;;;;;;5075099;28;20036;-76
2022/07/18 00:06:19;;;;;;;6.15;1.58;;;16.40;99.90;;;;;;5074897;28;20123;-76
2022/07/18 00:08:45;;;;;;;5.55;1.27;;;16.30;99.90;;;;;;5074930;28;20063;-76
2022/07/18 00:11:10;;;;;;;4.30;1.17;;;16.20;99.90;;;;;;5075278;28;20052;-76
2022/07/18 00:13:36;;;;;;;4.72;1.60;;;16.20;99.90;;;;;;5075172;28;20028;-76
2022/07/18 00:16:01;;;;;;;4.80;1.40;;;16.20;99.90;;;;;;5074775;28;20111;-76
2022/07/18 00:18:27;;;;;;;4.82;1.45;;;16.20;99.90;;;;;;5073437;28;20056;-76
2022/07/18 00:20:52;;;;;;;2.33;1.02;;;16.20;99.90;;;;;;5074746;28;20133;-76
2022/07/18 00:23:18;;;;;;;4.43;1.50;;;16.10;99.90;;;;;;5074719;28;20104;-76
2022/07/18 00:25:43;;;;;;;3.33;1.00;;;16.10;99.90;;;;;;5075198;28;20090;-76
2022/07/18 00:28:11;;;;;;;4.47;1.50;;;16.10;99.90;;;;;;5074485;28;20089;-76
2022/07/18 00:30:37;;;;;;;2.47;1.00;;;16.00;99.90;;;;;;5075204;28;20119;-76
2022/07/18 00:33:03;;;;;;;3.03;1.10;;;16.00;99.90;;;;;;5074762;28;20025;-76
2022/07/18 00:35:29;;;;;;;3.45;0.95;;;16.00;99.90;;;;;;5073146;28;20040;-76
2022/07/18 00:37:54;;;;;;;2.85;1.25;;;16.00;99.90;;;;;;5074975;28;20351;-76
2022/07/18 00:40:20;;;;;;;2.83;1.25;;;15.90;99.90;;;;;;5075347;28;20020;-76
2022/07/18 00:42:45;;;;;;;2.92;1.35;;;15.80;99.90;;;;;;5073969;28;20025;-78
2022/07/18 00:45:11;;;;;;;2.97;1.15;;;16.50;99.90;;;;;;5074283;28;20016;-76
2022/07/18 00:47:36;;;;;;;4.55;1.25;;;15.70;99.90;;;;;;5074305;28;20494;-76
2022/07/18 00:50:05;;;;;;;3.47;0.77;;;15.60;99.90;;;;;;5074612;28;20027;-77
2022/07/18 00:52:31;;;;;;;3.08;0.75;;;15.60;99.90;;;;;;5074114;28;20156;-76
2022/07/18 00:54:57;;;;;;;2.20;0.95;;;15.70;99.90;;;;;;5074105;28;20021;-76
2022/07/18 00:57:23;;;;;;;4.40;1.00;;;15.70;99.90;;;;;;5072665;28;20024;-76
2022/07/18 01:02:33;;;;;;;3.58;1.25;;;15.60;99.90;;;;;;5074525;28;20060;-75
2022/07/18 01:04:59;;;;;;;6.55;1.45;;;15.60;99.90;;;;;;5073727;28;20502;-75
2022/07/18 01:07:25;;;;;;;4.97;1.42;;;15.50;99.90;;;;;;5074205;28;20037;-75
2022/07/18 01:09:50;;;;;;;6.03;2.05;;;15.30;99.90;;;;;;5073954;28;20059;-75
2022/07/18 01:12:16;;;;;;;6.75;1.15;;;15.50;99.90;;;;;;5072504;28;20017;-75
2022/07/18 01:14:42;;;;;;;2.70;1.05;;;15.50;99.90;;;;;;5073812;28;20081;-75
2022/07/18 01:17:15;;;;;;;4.22;1.27;;;15.40;99.90;;;;;;5073634;28;20025;-75
2022/07/18 01:19:42;;;;;;;3.00;0.95;;;15.40;99.90;;;;;;5073811;28;20039;-75
2022/07/18 01:22:07;;;;;;;5.00;1.45;;;15.40;99.90;;;;;;5074701;28;20158;-75
2022/07/18 01:24:33;;;;;;;4.03;1.25;;;15.40;99.90;;;;;;5073620;28;20063;-75
2022/07/18 01:26:59;;;;;;;4.40;1.10;;;15.30;99.90;;;;;;5072286;28;20493;-75
2022/07/18 01:29:24;;;;;;;7.95;1.55;;;15.40;99.90;;;;;;5073438;28;20021;-75
2022/07/18 01:31:50;;;;;;;4.38;1.33;;;15.30;99.90;;;;;;5073967;28;20031;-75
2022/07/18 01:34:21;;;;;;;3.85;1.13;;;15.30;99.90;;;;;;5073439;28;20378;-75
2022/07/18 01:36:47;;;;;;;3.33;1.13;;;15.20;99.90;;;;;;5074357;28;20032;-75
2022/07/18 01:39:13;;;;;;;5.00;1.27;;;15.20;99.90;;;;;;5073393;28;20017;-76
2022/07/18 01:41:38;;;;;;;3.50;1.10;;;15.10;99.90;;;;;;5072225;28;20028;-76
2022/07/18 01:44:04;;;;;;;3.92;1.42;;;15.10;99.90;;;;;;5073663;28;20021;-76
2022/07/18 01:46:29;;;;;;;4.45;1.33;;;15.10;99.90;;;;;;5073360;28;20107;-76
2022/07/18 01:48:56;;;;;;;3.13;1.50;;;15.10;99.90;;;;;;5071952;28;20017;-76
2022/07/18 01:51:22;;;;;;;2.28;0.77;;;15.40;99.90;;;;;;5072117;28;20546;-76
2022/07/18 01:53:59;;;;;;;3.72;1.20;;;15.00;99.90;;;;;;5071399;28;20028;-76
2022/07/18 01:56:25;;;;;;;3.45;1.27;;;15.00;99.90;;;;;;5073175;28;20025;-76
2022/07/18 01:58:50;;;;;;;4.57;1.40;;;15.00;99.90;;;;;;5073145;28;20095;-76
2022/07/18 02:01:16;;;;;;;6.25;1.48;;;15.00;99.90;;;;;;5073276;28;20052;-75
2022/07/18 02:03:42;;;;;;;4.07;0.88;;;15.00;99.90;;;;;;5073176;28;20017;-75
2022/07/18 02:06:07;;;;;;;4.18;1.30;;;14.90;99.90;;;;;;5073055;28;20078;-75
2022/07/18 02:08:33;;;;;;;4.22;1.20;;;14.90;99.90;;;;;;5073649;28;20025;-75
2022/07/18 02:10:58;;;;;;;3.35;1.10;;;14.90;99.90;;;;;;5073054;28;20052;-75
2022/07/18 02:13:24;;;;;;;4.50;1.73;;;14.90;99.90;;;;;;5073612;28;20020;-75
2022/07/18 02:15:50;;;;;;;3.53;1.10;;;14.80;99.90;;;;;;5073052;28;20178;-76
2022/07/18 02:18:16;;;;;;;3.20;1.42;;;14.80;99.90;;;;;;5071712;28;20039;-75
2022/07/18 02:20:41;;;;;;;4.90;2.20;;;14.80;99.90;;;;;;5072950;28;20013;-75
2022/07/18 02:23:07;;;;;;;7.63;1.02;;;14.80;99.90;;;;;;5071728;28;20032;-75
2022/07/18 02:25:34;;;;;;;4.10;1.20;;;14.80;99.90;;;;;;5072928;28;20086;-75
2022/07/18 02:28:00;;;;;;;6.28;1.13;;;15.20;99.90;;;;;;5072882;28;20024;-75
2022/07/18 02:30:26;;;;;;;4.07;1.48;;;14.70;99.90;;;;;;5071855;28;20028;-75
2022/07/18 02:32:51;;;;;;;4.93;1.10;;;14.70;99.90;;;;;;5072855;28;20107;-75
2022/07/18 02:35:17;;;;;;;3.00;1.17;;;14.70;99.90;;;;;;5072928;28;20108;-75
2022/07/18 02:37:42;;;;;;;4.30;1.35;;;14.70;99.90;;;;;;5073462;28;20471;-75
2022/07/18 02:40:10;;;;;;;3.22;1.05;;;14.70;99.90;;;;;;5072984;28;20071;-75
2022/07/18 02:42:36;;;;;;;3.53;0.93;;;14.60;99.90;;;;;;5073179;28;20059;-75
2022/07/18 02:45:02;;;;;;;2.75;0.80;;;14.60;99.90;;;;;;5072799;28;20036;-75
2022/07/18 02:47:27;;;;;;;3.78;1.15;;;14.60;99.90;;;;;;5071501;28;20024;-75
2022/07/18 02:49:53;;;;;;;3.25;1.15;;;14.50;99.90;;;;;;5073309;28;20029;-75
2022/07/18 02:52:18;;;;;;;4.70;1.60;;;14.50;99.90;;;;;;5072840;28;20028;-75
2022/07/18 02:54:44;;;;;;;4.28;1.33;;;14.50;99.90;;;;;;5071729;28;20052;-75
2022/07/18 02:57:10;;;;;;;2.10;1.02;;;14.40;99.90;;;;;;5073029;28;20025;-75
2022/07/18 02:59:35;;;;;;;4.28;1.27;;;14.40;99.90;;;;;;5072602;28;20017;-75
2022/07/18 03:02:02;;;;;;;2.80;1.30;;;14.40;99.90;;;;;;5072633;28;20027;-75
2022/07/18 03:04:28;;;;;;;3.25;0.80;;;15.90;99.90;;;;;;5072873;28;20020;-76
2022/07/18 03:06:54;;;;;;;1.77;0.93;;;14.50;99.90;;;;;;5073908;28;20035;-75
2022/07/18 03:09:19;;;;;;;3.90;0.88;;;14.50;99.90;;;;;;5076109;28;20493;-75
2022/07/18 03:11:46;;;;;;;5.25;1.20;;;14.50;99.90;;;;;;5076459;28;20020;-75
2022/07/18 03:14:11;;;;;;;4.60;1.25;;;14.40;99.90;;;;;;5074948;28;20020;-75
2022/07/18 03:16:37;;;;;;;5.70;1.10;;;14.40;99.90;;;;;;5076083;28;20028;-75
2022/07/18 03:19:03;;;;;;;3.17;0.88;;;14.40;99.90;;;;;;5074545;28;20020;-75
2022/07/18 03:21:28;;;;;;;2.80;1.05;;;14.40;99.90;;;;;;5075860;28;20049;-75
2022/07/18 03:23:55;;;;;;;4.53;1.00;;;14.40;99.90;;;;;;5075817;28;20074;-75
2022/07/18 03:26:21;;;;;;;4.95;1.35;;;14.40;99.90;;;;;;5076068;28;20021;-75
2022/07/18 03:28:46;;;;;;;3.25;0.95;;;14.30;99.90;;;;;;5074392;28;20439;-75
2022/07/18 03:31:12;;;;;;;4.32;0.70;;;14.30;99.90;;;;;;5075715;28;20028;-75
2022/07/18 03:33:39;;;;;;;3.42;0.88;;;14.30;99.90;;;;;;5074477;28;20056;-75
2022/07/18 03:36:05;;;;;;;1.70;0.63;;;14.30;99.90;;;;;;5075765;28;20029;-75
2022/07/18 03:38:31;;;;;;;2.78;0.88;;;14.30;99.90;;;;;;5075523;28;20035;-75
2022/07/18 03:40:56;;;;;;;2.85;0.90;;;14.60;99.90;;;;;;5075518;28;20024;-75
2022/07/18 03:43:22;;;;;;;4.13;0.90;;;14.40;99.90;;;;;;5075831;28;20055;-75
2022/07/18 03:45:47;;;;;;;1.90;0.70;;;14.20;99.90;;;;;;5075565;28;20033;-75
2022/07/18 03:48:13;;;;;;;5.38;1.00;;;14.20;99.90;;;;;;5075449;28;20539;-75
2022/07/18 03:50:39;;;;;;;2.83;1.15;;;14.20;99.90;;;;;;5075292;28;20132;-75
2022/07/18 03:53:04;;;;;;;4.18;1.00;;;14.50;99.90;;;;;;5075360;28;20055;-75
2022/07/18 03:55:30;;;;;;;7.53;1.33;;;14.20;99.90;;;;;;5075222;28;20082;-75
2022/07/18 03:57:55;;;;;;;1.88;0.98;;;14.20;99.90;;;;;;5075218;28;20082;-75
2022/07/18 04:00:21;;;;;;;1.60;0.50;;;14.20;99.90;;;;;;5075131;28;20035;-75
2022/07/18 04:02:47;;;;;;;4.13;0.98;;;14.20;99.90;;;;;;5075103;28;20012;-75
2022/07/18 04:05:14;;;;;;;2.78;0.75;;;14.20;99.90;;;;;;5074926;28;20063;-75
2022/07/18 04:07:40;;;;;;;3.72;0.50;;;14.30;99.90;;;;;;5075312;28;20029;-75
2022/07/18 04:10:08;;;;;;;2.55;0.65;;;14.30;99.90;;;;;;5074942;28;20035;-75
2022/07/18 04:12:34;;;;;;;2.22;0.60;;;14.30;99.90;;;;;;5075022;28;20067;-75
2022/07/18 04:15:00;;;;;;;3.38;0.77;;;14.40;99.90;;;;;;5074874;28;20044;-75
2022/07/18 04:17:26;;;;;;;1.65;0.40;;;14.50;99.90;;;;;;5072658;28;20020;-75
2022/07/18 04:19:52;;;;;;;3.97;0.75;;;14.50;99.90;;;;;;5074700;28;20036;-75
2022/07/18 04:22:18;;;;;;;3.72;0.40;;;14.60;99.90;;;;;;5074732;28;20359;-75
2022/07/18 04:24:43;;;;;;;8.43;1.42;;;14.70;99.90;;;;;;5075087;28;20062;-75
2022/07/18 04:27:09;;;;;;;2.72;0.55;;;14.80;99.90;;;;;;5074780;28;20028;-75
2022/07/18 04:29:36;;;;;;;3.97;0.88;;;14.80;99.90;;;;;;5073348;28;20035;-75
2022/07/18 04:32:02;;;;;;;2.05;0.63;;;14.80;99.90;;;;;;5074805;28;20469;-75
2022/07/18 04:34:28;;;;;;;3.10;0.55;;;15.00;99.90;;;;;;5074538;28;20059;-75
2022/07/18 04:36:53;;;;;;;1.90;0.80;;;15.10;99.90;;;;;;5074446;28;20064;-75
2022/07/18 04:39:19;;;;;;;5.20;0.75;;;15.20;99.90;;;;;;5074232;28;20531;-75
2022/07/18 04:41:44;;;;;;;3.83;1.00;;;15.30;99.90;;;;;;5074411;28;20025;-75
2022/07/18 04:44:10;;;;;;;3.10;0.60;;;15.40;99.90;;;;;;5073151;28;20024;-75
2022/07/18 04:46:36;;;;;;;4.18;0.88;;;15.60;99.90;;;;;;5074443;28;20133;-75
2022/07/18 04:49:01;;;;;;;2.13;0.40;;;15.70;99.90;;;;;;5074203;28;20385;-75
2022/07/18 04:51:28;;;;;;;3.50;0.85;;;15.80;99.90;;;;;;5074215;28;20032;-75
2022/07/18 04:53:54;;;;;;;2.45;0.35;;;15.90;99.90;;;;;;5074609;28;20079;-75
2022/07/18 04:56:21;;;;;;;2.95;0.50;;;16.00;99.90;;;;;;5074107;28;20017;-75
2022/07/18 04:58:46;;;;;;;4.82;0.30;;;16.10;99.90;;;;;;5073987;28;20025;-75
2022/07/18 05:01:12;;;;;;;3.60;0.45;;;16.10;99.90;;;;;;5072843;28;20021;-75
2022/07/18 05:03:38;;;;;;;1.85;0.65;;;16.20;99.90;;;;;;5072853;28;20036;-75
2022/07/18 05:06:03;;;;;;;2.70;0.60;;;16.40;99.90;;;;;;5073323;28;20029;-75
2022/07/18 05:08:29;;;;;;;1.75;0.40;;;16.50;99.90;;;;;;5073310;28;20032;-75
2022/07/18 05:10:54;;;;;;;2.75;0.45;;;16.60;99.90;;;;;;5072995;28;20505;-75
2022/07/18 05:13:20;;;;;;;4.50;0.52;;;16.70;99.90;;;;;;5073001;28;20028;-75
2022/07/18 05:15:46;;;;;;;3.80;0.45;;;16.70;99.90;;;;;;5073108;28;20025;-75
2022/07/18 05:18:11;;;;;;;3.10;0.52;;;16.70;99.90;;;;;;5073138;28;20017;-75
2022/07/18 05:20:37;;;;;;;1.83;0.30;;;16.80;99.90;;;;;;5072951;28;20021;-75
2022/07/18 05:23:03;;;;;;;2.42;0.70;;;16.80;99.90;;;;;;5073414;28;20046;-75
2022/07/18 05:25:28;;;;;;;3.53;0.57;;;16.80;99.90;;;;;;5071618;28;20017;-75
2022/07/18 05:27:54;;;;;;;4.32;0.65;;;16.80;99.90;;;;;;5072857;28;20024;-75
2022/07/18 05:30:20;;;;;;;2.75;0.65;;;16.90;99.90;;;;;;5072564;28;20043;-75
2022/07/18 05:32:48;;;;;;;5.82;0.50;;;17.00;99.90;;;;;;5071795;28;20024;-76
2022/07/18 05:35:14;;;;;;;2.10;0.30;;;17.00;99.90;;;;;;5072815;28;20035;-75
2022/07/18 05:37:40;;;;;;;3.20;0.50;;;17.20;99.90;;;;;;5072922;28;20362;-75
2022/07/18 05:40:09;;;;;;;3.28;0.45;;;17.30;99.90;;;;;;5072807;28;20553;-75
2022/07/18 05:42:35;;;;;;;5.30;0.98;;;17.50;99.90;;;;;;5072714;28;20385;-75
2022/07/18 05:45:00;;;;;;;5.95;1.48;;;17.70;99.90;;;;;;5072601;28;20104;-75
2022/07/18 05:47:26;;;;;;;4.95;0.60;;;17.90;99.90;;;;;;5072812;28;20040;-75
2022/07/18 05:49:56;;;;;;;2.28;0.40;;;18.00;99.90;;;;;;5071175;28;20032;-74
2022/07/18 05:52:22;;;;;;;4.45;0.50;;;18.20;99.90;;;;;;5071365;28;20028;-73
2022/07/18 05:54:47;;;;;;;4.15;1.27;;;18.30;99.90;;;;;;5071842;28;20450;-75
2022/07/18 05:57:13;;;;;;;4.47;0.70;;;18.50;99.90;;;;;;5072471;28;20024;-75
2022/07/18 05:59:38;;;;;;;3.70;0.38;;;18.70;99.90;;;;;;5071013;28;20024;-75
2022/07/18 06:02:04;;;;;;;3.15;0.50;;;18.90;99.90;;;;;;5072130;28;20023;-77
2022/07/18 06:04:30;;;;;;;2.85;0.40;;;19.00;99.90;;;;;;5047606;28;1062362;-75
2022/07/18 06:06:57;;;;;;;4.75;0.40;;;19.20;99.90;;;;;;5073172;28;20439;-75
2022/07/18 06:09:22;;;;;;;2.78;0.20;;;19.30;99.90;;;;;;5073145;28;20063;-75
2022/07/18 06:11:48;;;;;;;2.88;0.80;;;19.50;99.90;;;;;;5071618;28;20055;-75
2022/07/18 06:14:14;;;;;;;3.35;0.32;;;19.60;99.90;;;;;;5072767;28;20027;-75
2022/07/18 06:16:39;;;;;;;5.93;0.60;;;19.80;99.90;;;;;;5071616;28;20025;-75
2022/07/18 06:19:05;;;;;;;2.88;0.80;;;19.80;99.90;;;;;;5072866;28;20099;-75
2022/07/18 06:21:30;;;;;;;3.78;0.40;;;19.90;99.90;;;;;;5072698;28;20020;-75
2022/07/18 06:23:56;;;;;;;2.10;0.68;;;20.00;99.90;;;;;;5071397;28;20450;-75
2022/07/18 06:26:22;;;;;;;2.78;0.65;;;20.20;99.90;;;;;;5073192;28;20044;-75
2022/07/18 06:28:47;;;;;;;4.13;0.30;;;20.30;99.90;;;;;;5072630;28;20020;-75
2022/07/18 06:31:16;;;;;;;3.13;0.50;;;20.50;99.80;;;;;;5072941;28;20478;-75
2022/07/18 06:33:42;;;;;;;2.63;0.35;;;20.40;99.90;;;;;;5072633;28;20124;-75
2022/07/18 06:36:08;;;;;;;1.67;0.38;;;20.40;99.70;;;;;;5073256;28;20024;-75
2022/07/18 06:38:34;;;;;;;2.38;0.70;;;20.50;99.60;;;;;;5072604;28;20055;-75
2022/07/18 06:40:59;;;;;;;3.15;0.35;;;20.60;99.80;;;;;;5073964;28;20082;-75
2022/07/18 06:43:25;;;;;;;4.15;0.40;;;20.80;99.90;;;;;;5075302;28;20185;-75
2022/07/18 06:45:52;;;;;;;3.42;0.43;;;21.00;99.30;;;;;;5075147;28;20094;-75
2022/07/18 06:48:18;;;;;;;4.18;0.95;;;21.10;97.70;;;;;;5076215;28;20103;-75
2022/07/18 06:50:43;;;;;;;5.65;0.25;;;21.30;97.40;;;;;;5076210;28;20029;-75
2022/07/18 06:53:09;;;;;;;2.17;0.52;;;21.40;96.90;;;;;;5076643;28;20036;-75
2022/07/18 06:55:35;;;;;;;1.60;0.43;;;21.50;96.80;;;;;;5074465;28;20028;-75
2022/07/18 06:58:01;;;;;;;5.57;0.47;;;21.70;96.80;;;;;;5075023;28;20020;-75
2022/07/18 07:00:26;;;;;;;2.45;0.50;;;21.70;96.60;;;;;;5075778;28;20063;-75
2022/07/18 07:02:52;;;;;;;1.92;0.45;;;21.90;96.50;;;;;;5076356;28;20021;-75
2022/07/18 07:05:20;;;;;;;3.85;0.40;;;22.00;95.70;;;;;;5082993;22;20067;-73
2022/07/18 07:07:46;;;;;;;2.85;0.70;;;22.20;95.60;;;;;;5091814;28;20024;-73
2022/07/18 07:10:12;;;;;;;4.00;0.22;;;22.30;94.90;;;;;;5091732;28;20081;-73
2022/07/18 07:12:42;;;;;;;3.35;0.30;;;22.50;95.20;;;;;;5076146;28;20033;-73
2022/07/18 07:15:09;;;;;;;3.60;0.60;;;22.70;95.10;;;;;;5076700;28;20027;-73
2022/07/18 07:17:35;;;;;;;2.45;0.22;;;22.80;94.00;;;;;;5074754;28;20029;-73
2022/07/18 07:20:03;;;;;;;3.45;0.73;;;22.90;91.90;;;;;;5074793;28;20051;-73
2022/07/18 07:22:28;;;;;;;3.72;0.38;;;23.00;91.50;;;;;;5076179;28;20477;-73
2022/07/18 07:24:54;;;;;;;4.97;0.40;;;23.00;91.80;;;;;;5076194;28;20092;-73
2022/07/18 07:27:20;;;;;;;2.35;0.60;;;23.20;91.30;;;;;;5076432;28;20032;-73
2022/07/18 07:29:45;;;;;;;4.07;0.70;;;23.30;89.70;;;;;;5076039;28;20017;-73
2022/07/18 07:32:11;;;;;;;4.88;0.45;;;23.40;88.20;;;;;;5075688;28;20029;-73
2022/07/18 07:34:36;;;;;;;3.75;0.55;;;23.60;88.10;;;;;;5076211;28;20028;-73
2022/07/18 07:37:02;;;;;;;3.53;0.63;;;23.60;86.60;;;;;;5076174;28;20103;-73
2022/07/18 07:39:28;;;;;;;1.77;0.20;;;23.90;86.30;;;;;;5075573;28;20388;-73
2022/07/18 07:41:53;;;;;;;4.07;0.80;;;23.80;85.90;;;;;;5075626;28;20036;-74
2022/07/18 07:44:19;;;;;;;6.00;0.80;;;24.00;86.30;;;;;;5075612;28;20063;-73
2022/07/18 07:46:45;;;;;;;2.92;0.50;;;24.10;85.60;;;;;;5075742;28;20491;-73
2022/07/18 07:49:10;;;;;;;1.23;0.10;;;24.20;82.80;;;;;;5074446;28;20530;-73
2022/07/18 07:51:36;;;;;;;2.67;0.68;;;24.30;83.80;;;;;;5075623;28;20058;-73
2022/07/18 07:54:03;;;;;;;2.45;0.10;;;24.50;82.70;;;;;;5074160;28;20063;-73
2022/07/18 07:56:28;;;;;;;1.80;0.10;;;24.70;79.60;;;;;;5075377;28;20028;-73
2022/07/18 07:58:54;;;;;;;2.15;0.30;;;24.70;77.40;;;;;;5075151;28;20569;-73
2022/07/18 08:01:19;;;;;;;2.30;0.40;;;24.80;77.30;;;;;;5075315;28;20044;-73
2022/07/18 08:03:48;;;;;;;2.63;0.10;;;24.90;77.10;;;;;;5075182;28;20024;-73
2022/07/18 08:06:13;;;;;;;1.75;0.17;;;24.90;76.40;;;;;;5073798;28;20500;-73
2022/07/18 08:08:39;;;;;;;2.58;0.20;;;24.90;76.40;;;;;;5075159;28;20025;-73
2022/07/18 08:11:05;;;;;;;4.80;0.35;;;24.90;76.30;;;;;;5073683;28;20062;-73
2022/07/18 08:13:31;;;;;;;1.95;0.10;;;25.00;76.10;;;;;;5075584;28;20036;-73
2022/07/18 08:15:56;;;;;;;3.00;0.13;;;25.00;73.80;;;;;;5073968;28;20021;-73
2022/07/18 08:18:22;;;;;;;2.33;0.45;;;25.00;75.00;;;;;;5075124;28;20042;-73
2022/07/18 08:20:48;;;;;;;3.55;0.20;;;25.10;73.40;;;;;;5074769;28;20023;-73
2022/07/18 08:23:13;;;;;;;2.65;0.20;;;25.20;74.20;;;;;;5074795;28;20017;-73
2022/07/18 08:25:41;;;;;;;4.75;0.57;;;25.50;74.10;;;;;;5074752;28;20424;-73
2022/07/18 08:28:07;;;;;;;2.60;0.10;;;25.70;72.10;;;;;;5074668;28;20017;-73
2022/07/18 08:30:34;;;;;;;1.83;0.20;;;25.90;71.90;;;;;;5073369;28;20291;-73
2022/07/18 08:33:03;;;;;;;2.53;0.10;;;26.00;69.30;;;;;;5074573;28;20028;-73
2022/07/18 08:35:29;;;;;;;3.17;0.30;;;26.20;70.70;;;;;;5074502;28;20027;-73
2022/07/18 08:37:54;;;;;;;3.72;0.32;;;26.30;69.80;;;;;;5073225;28;20028;-73
2022/07/18 08:40:20;;;;;;;2.92;0.30;;;26.50;68.10;;;;;;5074335;28;20025;-73
2022/07/18 08:42:51;;;;;;;4.35;0.40;;;26.70;68.00;;;;;;5074671;28;20028;-73
2022/07/18 08:45:20;;;;;;;4.53;0.45;;;27.00;67.50;;;;;;5074341;28;20070;-73
2022/07/18 08:47:46;;;;;;;3.65;0.20;;;27.10;66.20;;;;;;5074238;28;20378;-73
2022/07/18 08:50:12;;;;;;;2.10;0.28;;;27.40;65.60;;;;;;5074243;28;20027;-73
2022/07/18 08:52:38;;;;;;;3.58;0.63;;;27.60;64.10;;;;;;5074229;28;20064;-73
2022/07/18 08:55:06;;;;;;;1.90;0.30;;;27.70;62.60;;;;;;5074336;28;20103;-73
2022/07/18 08:57:32;;;;;;;2.30;0.82;;;27.90;63.20;;;;;;5074000;28;20419;-73
2022/07/18 08:59:57;;;;;;;3.53;0.25;;;28.20;61.60;;;;;;5074274;28;20027;-73
2022/07/18 09:02:26;;;;;;;2.33;0.10;;;28.50;60.50;;;;;;5073380;28;20025;-76
2022/07/18 09:04:53;;;;;;;2.25;0.47;;;28.60;60.50;;;;;;5073207;28;20556;-76
2022/07/18 09:07:30;;;;;;;3.35;0.63;;;28.60;59.40;;;;;;5072676;28;20477;-76
2022/07/18 09:09:57;;;;;;;3.08;0.03;;;28.40;59.00;;;;;;5072512;28;20024;-75
2022/07/18 09:12:25;;;;;;;1.45;0.10;;;28.40;59.90;;;;;;5074148;28;20020;-76
2022/07/18 09:14:51;;;;;;;1.60;0.30;;;28.20;60.30;;;;;;5073825;28;20031;-76
2022/07/18 09:17:22;;;;;;;4.15;0.30;;;28.10;58.60;;;;;;5073730;28;20256;-76
2022/07/18 09:19:59;;;;;;;2.85;0.25;;;28.00;57.40;;;;;;5072357;28;20048;-75
2022/07/18 09:22:37;;;;;;;3.15;0.20;;;27.80;58.70;;;;;;5073777;28;20052;-75
2022/07/18 09:25:12;;;;;;;3.50;0.55;;;27.80;63.50;;;;;;5074352;28;20509;-75
2022/07/18 09:27:46;;;;;;;3.15;0.17;;;27.70;61.50;;;;;;5073936;28;20021;-75
2022/07/18 09:30:16;;;;;;;3.60;0.43;;;27.70;61.10;;;;;;5073538;28;20424;-75
2022/07/18 09:32:48;;;;;;;4.47;0.73;;;28.00;60.90;;;;;;5072380;28;20028;-75
2022/07/18 09:35:35;;;;;;;1.67;0.20;;;28.40;60.00;;;;;;5072283;28;20370;-76
2022/07/18 09:38:09;;;;;;;7.13;0.38;;;28.70;56.60;;;;;;5072180;28;20056;-75
2022/07/18 09:40:38;;;;;;;5.10;0.35;;;28.40;57.50;;;;;;5073587;28;20029;-75
2022/07/18 09:43:11;;;;;;;7.70;1.13;;;28.50;57.10;;;;;;5073646;28;20457;-75
2022/07/18 09:45:41;;;;;;;3.25;0.13;;;28.20;57.20;;;;;;5073688;28;20473;-75
2022/07/18 09:48:12;;;;;;;0.82;0.20;;;27.80;60.30;;;;;;5073405;28;20016;-75
2022/07/18 09:50:48;;;;;;;1.45;0.20;;;27.50;61.20;;;;;;5073629;28;20029;-73
2022/07/18 09:53:25;;;;;;;1.98;0.25;;;27.40;58.00;;;;;;5073605;28;20039;-73
2022/07/18 09:55:52;;;;;;;2.03;0.15;;;27.70;57.40;;;;;;5073257;28;20427;-73
2022/07/18 09:58:25;;;;;;;4.90;0.50;;;27.90;59.60;;;;;;5073514;28;20020;-74
2022/07/18 10:00:53;;;;;;;4.72;0.50;;;28.20;58.30;;;;;;5073225;28;20025;-73
2022/07/18 10:03:20;;;;;;;1.02;0.40;;;28.50;54.10;;;;;;5071979;28;20013;-73
2022/07/18 10:05:47;;;;;;;9.93;1.23;;;28.70;54.00;;;;;;5073207;28;20123;-73
2022/07/18 10:08:19;;;;;;;1.67;0.50;;;28.70;54.10;;;;;;5071999;28;20055;-73
2022/07/18 10:10:46;;;;;;;3.58;0.30;;;28.90;54.30;;;;;;5073111;28;20021;-74
2022/07/18 10:13:13;;;;;;;3.03;0.95;;;29.30;52.60;;;;;;5073177;28;20032;-74
2022/07/18 10:15:42;;;;;;;2.63;0.73;;;29.50;51.50;;;;;;5074013;28;20025;-73
2022/07/18 10:18:13;;;;;;;3.97;0.45;;;29.60;50.80;;;;;;5075876;28;20028;-76
2022/07/18 10:20:45;;;;;;;4.22;0.35;;;29.70;50.30;;;;;;5077029;28;20043;-76
2022/07/18 10:23:19;;;;;;;1.63;0.10;;;29.80;49.40;;;;;;5077514;28;20031;-76
2022/07/18 10:26:05;;;;;;;3.17;0.55;;;29.80;48.90;;;;;;5077159;28;20023;-76
2022/07/18 10:28:31;;;;;;;3.45;0.30;;;29.90;50.80;;;;;;5076962;28;20093;-75
2022/07/18 10:31:13;;;;;;;1.33;0.10;;;30.20;51.60;;;;;;5076000;28;20021;-75
2022/07/18 10:33:47;;;;;;;5.05;0.63;;;30.50;50.90;;;;;;5075706;28;20016;-76
2022/07/18 10:36:16;;;;;;;3.40;0.10;;;30.70;49.30;;;;;;5076860;28;20020;-76
2022/07/18 10:39:03;;;;;;;3.50;0.10;;;30.80;47.90;;;;;;5076941;28;20052;-74
2022/07/18 10:41:29;;;;;;;0.85;0.10;;;30.90;47.30;;;;;;5075525;28;20032;-74
2022/07/18 10:43:55;;;;;;;2.78;0.32;;;31.00;48.10;;;;;;5076638;28;20401;-75
2022/07/18 10:46:21;;;;;;;1.92;0.68;;;31.00;47.30;;;;;;5075338;28;20024;-76
2022/07/18 10:48:52;;;;;;;1.08;0.20;;;30.80;47.60;;;;;;5076638;28;20078;-77
2022/07/18 10:51:19;;;;;;;0.70;0.17;;;30.80;48.90;;;;;;5076680;28;20021;-77
2022/07/18 10:53:53;;;;;;;1.92;0.00;;;31.00;47.90;;;;;;5075325;28;20442;-76
2022/07/18 10:56:28;;;;;;;3.50;0.00;;;31.20;47.40;;;;;;5076711;28;20475;-77
2022/07/18 10:59:13;;;;;;;0.70;0.10;;;31.40;45.80;;;;;;5076634;28;20028;-76
2022/07/18 11:01:54;;;;;;;1.08;0.57;;;31.70;45.80;;;;;;5076397;28;20024;-76
2022/07/18 11:04:30;;;;;;;2.50;0.10;;;31.80;45.20;;;;;;5076364;28;20025;-76
2022/07/18 11:07:03;;;;;;;2.28;0.10;;;31.80;46.00;;;;;;5076400;28;20085;-76
2022/07/18 11:09:42;;;;;;;1.75;0.30;;;31.80;46.40;;;;;;5076305;28;20070;-76
2022/07/18 11:12:30;;;;;;;4.78;0.30;;;31.90;45.70;;;;;;5076161;28;20052;-76
2022/07/18 11:15:13;;;;;;;2.80;0.57;;;31.80;45.20;;;;;;5076718;28;20549;-76
2022/07/18 11:17:55;;;;;;;2.47;0.10;;;31.90;45.40;;;;;;5075959;28;20484;-76
2022/07/18 11:20:27;;;;;;;1.63;0.25;;;31.90;45.50;;;;;;5075946;28;20032;-76
2022/07/18 11:22:53;;;;;;;1.02;0.63;;;32.10;45.10;;;;;;5076205;28;20100;-76
2022/07/18 11:25:19;;;;;;;1.10;0.20;;;32.30;42.70;;;;;;5075936;28;20362;-76
2022/07/18 11:27:45;;;;;;;1.85;0.30;;;32.20;40.40;;;;;;5075353;28;20024;-76
2022/07/18 11:30:16;;;;;;;1.63;0.30;;;32.10;42.30;;;;;;5075742;28;20049;-76
2022/07/18 11:32:42;;;;;;;4.13;0.47;;;32.20;43.60;;;;;;5076543;28;20099;-76
2022/07/18 11:35:09;;;;;;;0.65;0.00;;;32.20;44.00;;;;;;5075745;28;20566;-76
2022/07/18 11:37:36;;;;;;;0.55;0.00;;;32.20;42.00;;;;;;5074373;28;20036;-76
2022/07/18 11:40:09;;;;;;;1.77;0.30;;;32.20;42.40;;;;;;5076506;28;20016;-76
2022/07/18 11:42:39;;;;;;;0.45;0.10;;;32.10;42.40;;;;;;5075893;28;20535;-76
2022/07/18 11:45:10;;;;;;;0.90;0.00;;;32.40;42.40;;;;;;5075563;28;20073;-76
2022/07/18 11:47:54;;;;;;;3.25;0.20;;;32.70;42.30;;;;;;5075906;28;20032;-76
2022/07/18 11:50:40;;;;;;;0.88;0.20;;;32.80;43.10;;;;;;5075368;28;20023;-76
2022/07/18 11:53:06;;;;;;;4.75;0.30;;;33.20;41.70;;;;;;5074340;28;20137;-76
2022/07/18 11:55:36;;;;;;;0.85;0.10;;;33.30;42.20;;;;;;5074153;28;20037;-76
2022/07/18 11:58:14;;;;;;;3.50;0.10;;;33.60;41.10;;;;;;5075600;28;20138;-77
2022/07/18 12:00:41;;;;;;;1.02;0.10;;;33.70;40.20;;;;;;5073958;28;20052;-76
2022/07/18 12:03:27;;;;;;;0.63;0.00;;;33.90;40.50;;;;;;5075234;28;20512;-77
2022/07/18 12:05:53;;;;;;;1.75;0.28;;;34.30;39.60;;;;;;5074937;28;20074;-77
2022/07/18 12:08:35;;;;;;;1.67;0.20;;;34.50;40.00;;;;;;5075120;28;20029;-76
2022/07/18 12:11:32;;;;;;;2.63;0.10;;;34.70;40.30;;;;;;5074946;28;20036;-76
2022/07/18 12:14:00;;;;;;;0.95;0.20;;;34.90;39.60;;;;;;5075288;28;20370;-76
2022/07/18 12:16:41;;;;;;;0.75;0.13;;;34.90;38.80;;;;;;5074978;28;20021;-76
2022/07/18 12:19:21;;;;;;;2.15;0.00;;;34.90;40.30;;;;;;5073505;28;20094;-77
2022/07/18 12:21:54;;;;;;;1.33;0.10;;;34.90;40.10;;;;;;5075246;28;20027;-77
2022/07/18 12:25:00;;;;;;;1.13;0.10;;;35.10;40.00;;;;;;5075566;28;20040;-77
2022/07/18 12:27:37;;;;;;;0.80;0.13;;;35.30;40.40;;;;;;5073013;28;20082;-76
2022/07/18 12:30:11;;;;;;;0.90;0.00;;;35.40;40.30;;;;;;5074834;28;20100;-76
2022/07/18 12:32:41;;;;;;;4.43;0.30;;;35.20;38.20;;;;;;5073275;28;20389;-76
2022/07/18 12:35:11;;;;;;;2.00;0.10;;;34.90;37.80;;;;;;5073284;28;20036;-77
2022/07/18 12:37:37;;;;;;;1.42;0.10;;;34.80;38.90;;;;;;5074485;28;20032;-76
2022/07/18 12:40:09;;;;;;;0.88;0.00;;;35.10;38.70;;;;;;5074428;28;20025;-77
2022/07/18 12:42:40;;;;;;;2.58;0.10;;;35.30;38.60;;;;;;5074367;28;20021;-76
2022/07/18 12:45:07;;;;;;;4.43;0.28;;;35.70;38.20;;;;;;5073199;28;20043;-76
2022/07/18 12:47:33;;;;;;;1.30;0.00;;;36.10;38.20;;;;;;5074676;28;20040;-77
2022/07/18 12:49:59;;;;;;;1.58;0.00;;;36.10;37.70;;;;;;5074226;28;20024;-76
2022/07/18 12:52:25;;;;;;;0.43;0.05;;;36.10;37.10;;;;;;5074843;28;20025;-77
2022/07/18 12:54:51;;;;;;;2.08;0.10;;;36.30;36.40;;;;;;5074204;28;20057;-76